Aviation Digital Data Service (ADDS)

Output produced by METARs form (1352 UTC 21 August 2019)
found at http://www.aviationweather.gov/metar/data/
 
Forecast for: ETNG (GEILENKIRCHEN(NA, DE)
Text: TAF ETNG 211100Z 2112/2203 VRB03KT 9999 FEW045
Forecast period: 1200 to 1500 UTC 21 August 2019
Forecast type: FROM: standard forecast or significant change
Winds: variable direction winds at 3 MPH (3 knots; 1.5 m/s)
Visibility: 6 or more miles 10+ km)
Ceiling: at least 12,000 feet AGL
Clouds: few clouds at 4500 feet AGL
Weather: no significant weather forecast for this period
Text: BECMG 2115/2118 04003KT
Forecast period: 1500 to 1900 UTC 21 August 2019
Forecast type: BECOMING: Conditions expected to become as follows by 1800 UTC 21 August 2019
Winds: from the NE (40 degrees) at 3 MPH (3 knots; 1.5 m/s)
Visibility: 6 or more miles 10+ km)
Ceiling: at least 12,000 feet AGL
Clouds: few clouds at 4500 feet AGL
Weather: no significant weather forecast for this period
Text: BECMG 2119/2122 13003KT
Forecast period: 1900 UTC 21 August 2019 to 0300 UTC 22 August 2019
Forecast type: BECOMING: Conditions expected to become as follows by 2200 UTC 21 August 2019
Winds: from the SE (130 degrees) at 3 MPH (3 knots; 1.5 m/s)
Visibility: 6 or more miles 10+ km)
Ceiling: at least 12,000 feet AGL
Clouds: few clouds at 4500 feet AGL
Weather: no significant weather forecast for this period